createdAt,value
2019-05-07T00:00:43.824Z,69.87
2019-05-07T00:01:42.407Z,65.75
2019-05-07T00:02:42.793Z,64.83
2019-05-07T00:03:42.341Z,66.61
2019-05-07T00:04:42.919Z,68.46
2019-05-07T00:05:42.886Z,68.25
2019-05-07T00:06:43.463Z,70.21
2019-05-07T00:07:42.566Z,70.72
2019-05-07T00:08:44.673Z,71.86
2019-05-07T00:09:42.991Z,72.58
2019-05-07T00:10:42.594Z,72.47
2019-05-07T00:11:42.688Z,72.58
2019-05-07T00:12:43.103Z,73.09
2019-05-07T00:13:44.359Z,74.02
2019-05-07T00:14:42.952Z,75.05
2019-05-07T00:15:43.107Z,74.74
2019-05-07T00:16:42.391Z,75.05
2019-05-07T00:17:42.897Z,76.28
2019-05-07T00:18:42.941Z,75.46
2019-05-07T00:19:43.191Z,75.25
2019-05-07T00:20:42.473Z,74.77
2019-05-07T00:21:42.416Z,74.77
2019-05-07T00:22:42.048Z,75.49
2019-05-07T00:23:43.289Z,76.11
2019-05-07T00:24:42.718Z,76.93
2019-05-07T00:25:42.326Z,77.76
2019-05-07T00:26:42.972Z,78.17
2019-05-07T00:27:42.673Z,78.79
2019-05-07T00:28:43.167Z,79.41
2019-05-07T00:29:42.948Z,80.23
2019-05-07T00:30:42.562Z,80.75
2019-05-07T00:31:42.231Z,81.67
2019-05-07T00:32:42.451Z,82.40
2019-05-07T00:33:43.296Z,82.81
2019-05-07T00:34:42.446Z,82.77
2019-05-07T00:35:42.877Z,82.77
2019-05-07T00:36:42.149Z,83.18
2019-05-07T00:37:43.162Z,83.59
2019-05-07T00:38:42.753Z,83.70
2019-05-07T00:39:42.392Z,83.70
2019-05-07T00:40:42.543Z,83.90
2019-05-07T00:41:42.691Z,84.21
2019-05-07T00:42:42.172Z,84.00
2019-05-07T00:43:42.902Z,83.90
2019-05-07T00:44:42.221Z,83.94
2019-05-07T00:45:42.205Z,83.94
2019-05-07T00:46:42.719Z,83.94
2019-05-07T00:47:42.587Z,83.94
2019-05-07T00:48:42.349Z,83.94
2019-05-07T00:49:42.578Z,84.14
2019-05-07T00:50:42.109Z,84.05
2019-05-07T00:51:42.444Z,84.59
2019-05-07T00:52:42.952Z,85.01
2019-05-07T00:53:42.365Z,85.01
2019-05-07T00:54:42.241Z,84.80
2019-05-07T00:55:42.306Z,84.91
2019-05-07T00:56:42.915Z,84.70
2019-05-07T00:57:42.888Z,84.64
2019-05-07T00:58:42.809Z,84.84
2019-05-07T00:59:42.946Z,85.05
2019-05-07T01:00:42.172Z,85.25
2019-05-07T01:01:43.247Z,84.84
2019-05-07T01:02:43.090Z,84.53
2019-05-07T01:03:42.404Z,84.53
2019-05-07T01:04:42.300Z,84.74
2019-05-07T01:05:43.247Z,84.64
2019-05-07T01:06:42.349Z,84.84
2019-05-07T01:07:42.036Z,84.74
2019-05-07T01:08:43.060Z,84.84
2019-05-07T01:09:43.055Z,85.05
2019-05-07T01:10:42.061Z,85.25
2019-05-07T01:11:42.866Z,85.67
2019-05-07T01:12:42.355Z,85.97
2019-05-07T01:13:43.162Z,86.08
2019-05-07T01:14:42.074Z,86.18
2019-05-07T01:15:43.039Z,86.39
2019-05-07T01:16:42.102Z,86.39
2019-05-07T01:17:42.549Z,86.39
2019-05-07T01:18:42.062Z,86.60
2019-05-07T01:19:42.345Z,86.60
2019-05-07T01:20:42.296Z,86.60
2019-05-07T01:21:43.224Z,86.49
2019-05-07T01:22:42.419Z,86.60
2019-05-07T01:23:42.782Z,86.70
2019-05-07T01:24:42.918Z,86.90
2019-05-07T01:25:42.995Z,87.01
2019-05-07T01:26:42.585Z,87.21
2019-05-07T01:27:42.722Z,87.21
2019-05-07T01:28:42.123Z,87.11
2019-05-07T01:29:43.050Z,87.21
2019-05-07T01:30:43.217Z,87.42
2019-05-07T01:31:43.091Z,87.42
2019-05-07T01:32:42.527Z,87.42
2019-05-07T01:33:42.385Z,87.42
2019-05-07T01:34:42.958Z,87.42
2019-05-07T01:35:42.336Z,87.73
2019-05-07T01:36:42.710Z,87.63
2019-05-07T01:37:42.200Z,87.63
2019-05-07T01:38:42.668Z,87.42
2019-05-07T01:39:42.168Z,87.32
2019-05-07T01:40:42.779Z,87.21
2019-05-07T01:41:41.958Z,87.21
2019-05-07T01:42:42.374Z,87.01
2019-05-07T01:43:42.925Z,87.35
2019-05-07T01:44:42.036Z,87.05
2019-05-07T01:45:46.412Z,86.84
2019-05-07T01:46:42.285Z,86.74
2019-05-07T01:47:42.505Z,86.94
2019-05-07T01:48:42.982Z,86.84
2019-05-07T01:49:42.233Z,86.74
2019-05-07T01:50:42.913Z,86.78
2019-05-07T01:51:42.258Z,86.78
2019-05-07T01:52:42.733Z,86.78
2019-05-07T01:53:43.009Z,87.08
2019-05-07T01:54:42.570Z,87.19
2019-05-07T01:55:42.836Z,87.40
2019-05-07T01:56:42.779Z,87.60
2019-05-07T01:57:42.145Z,87.92
2019-05-07T01:58:42.502Z,88.12
2019-05-07T01:59:42.729Z,88.02
2019-05-07T02:00:42.378Z,87.81
2019-05-07T02:01:42.879Z,87.71
2019-05-07T02:02:42.555Z,87.60
2019-05-07T02:03:42.019Z,87.60
2019-05-07T02:04:42.731Z,87.50
2019-05-07T02:05:42.408Z,87.50
2019-05-07T02:06:42.826Z,87.50
2019-05-07T02:07:42.788Z,87.71
2019-05-07T02:08:42.327Z,87.92
2019-05-07T02:09:42.473Z,88.02
2019-05-07T02:10:42.750Z,88.22
2019-05-07T02:11:42.243Z,88.22
2019-05-07T02:12:42.550Z,88.53
2019-05-07T02:13:42.049Z,88.74
2019-05-07T02:14:42.236Z,88.74
2019-05-07T02:15:42.716Z,88.84
2019-05-07T02:16:41.877Z,88.95
2019-05-07T02:17:42.850Z,89.05
2019-05-07T02:18:42.430Z,89.25
2019-05-07T02:19:42.518Z,89.46
2019-05-07T02:20:42.591Z,89.46
2019-05-07T02:21:42.344Z,89.67
2019-05-07T02:22:42.689Z,89.77
2019-05-07T02:23:42.560Z,89.87
2019-05-07T02:24:43.249Z,89.87
2019-05-07T02:25:41.972Z,89.87
2019-05-07T02:26:42.539Z,89.87
2019-05-07T02:27:42.080Z,89.77
2019-05-07T02:28:42.572Z,89.46
2019-05-07T02:29:42.929Z,89.15
2019-05-07T02:30:44.107Z,88.95
2019-05-07T02:31:43.792Z,88.74
2019-05-07T02:32:43.337Z,88.74
2019-05-07T02:33:43.365Z,88.64
2019-05-07T02:34:43.770Z,88.74
2019-05-07T02:35:43.561Z,88.84
2019-05-07T02:36:43.362Z,88.70
2019-05-07T02:37:48.388Z,88.64
2019-05-07T02:38:44.236Z,88.39
2019-05-07T02:39:44.004Z,88.18
2019-05-07T02:40:43.037Z,88.08
2019-05-07T02:41:43.743Z,87.98
2019-05-07T02:42:44.065Z,87.98
2019-05-07T02:43:43.011Z,87.87
2019-05-07T02:44:43.611Z,87.66
2019-05-07T02:45:43.765Z,87.56
2019-05-07T02:46:43.129Z,87.66
2019-05-07T02:47:43.522Z,88.02
2019-05-07T02:48:42.852Z,88.02
2019-05-07T02:49:43.598Z,88.12
2019-05-07T02:50:43.488Z,87.92
2019-05-07T02:51:43.444Z,87.60
2019-05-07T02:52:43.382Z,87.29
2019-05-07T02:53:43.008Z,87.29
2019-05-07T02:54:43.541Z,87.19
2019-05-07T02:55:43.297Z,87.13
2019-05-07T02:56:42.981Z,87.13
2019-05-07T02:57:43.192Z,87.13
2019-05-07T02:58:43.187Z,87.13
2019-05-07T02:59:40.354Z,87.23
2019-05-07T03:00:43.101Z,87.23
2019-05-07T03:01:43.036Z,87.44
2019-05-07T03:02:43.557Z,88.06
2019-05-07T03:03:40.312Z,88.37
2019-05-07T03:04:43.312Z,88.47
2019-05-07T03:05:42.855Z,88.47
2019-05-07T03:06:40.272Z,88.16
2019-05-07T03:07:42.781Z,88.06
2019-05-07T03:08:40.258Z,88.16
2019-05-07T03:09:43.186Z,88.26
2019-05-07T03:10:43.151Z,88.26
2019-05-07T03:11:43.249Z,88.47
2019-05-07T03:12:42.819Z,88.68
2019-05-07T03:13:42.977Z,88.68
2019-05-07T03:14:40.196Z,88.68
2019-05-07T03:15:43.199Z,88.57
2019-05-07T03:16:47.456Z,88.78
2019-05-07T03:17:42.932Z,88.78
2019-05-07T03:18:43.515Z,88.68
2019-05-07T03:19:42.782Z,88.57
2019-05-07T03:20:42.540Z,88.47
2019-05-07T03:21:40.113Z,88.26
2019-05-07T03:22:42.640Z,88.16
2019-05-07T03:23:42.834Z,88.26
2019-05-07T03:24:43.150Z,88.26
2019-05-07T03:25:43.028Z,88.26
2019-05-07T03:26:43.344Z,88.26
2019-05-07T03:27:42.921Z,88.06
2019-05-07T03:28:42.301Z,88.06
2019-05-07T03:29:40.028Z,88.06
2019-05-07T03:30:44.955Z,88.06
2019-05-07T03:31:46.102Z,88.06
2019-05-07T03:32:46.851Z,87.95
2019-05-07T03:33:46.564Z,87.95
2019-05-07T03:34:46.229Z,87.95
2019-05-07T03:35:45.827Z,87.85
2019-05-07T03:36:46.776Z,87.85
2019-05-07T03:37:43.419Z,87.74
2019-05-07T03:38:39.955Z,87.74
2019-05-07T03:39:42.952Z,87.74
2019-05-07T03:40:39.917Z,87.74
2019-05-07T03:41:43.080Z,88.16
2019-05-07T03:42:39.883Z,88.47
2019-05-07T03:43:39.874Z,88.43
2019-05-07T03:44:39.899Z,88.32
2019-05-07T03:45:42.956Z,88.22
2019-05-07T03:46:54.517Z,88.02
2019-05-07T03:47:43.636Z,87.81
2019-05-07T03:48:39.822Z,87.40
2019-05-07T03:49:42.796Z,87.08
2019-05-07T03:50:42.852Z,86.88
2019-05-07T03:51:39.797Z,86.68
2019-05-07T03:52:42.627Z,86.68
2019-05-07T03:53:43.163Z,86.78
2019-05-07T03:54:42.848Z,86.98
2019-05-07T03:55:39.746Z,86.98
2019-05-07T03:56:39.750Z,86.94
2019-05-07T03:57:39.726Z,86.94
2019-05-07T03:58:39.726Z,86.94
2019-05-07T03:59:39.734Z,86.84
2019-05-07T04:00:39.694Z,86.74
2019-05-07T04:01:42.902Z,86.94
2019-05-07T04:02:39.696Z,86.84
2019-05-07T04:03:39.664Z,86.74
2019-05-07T04:04:39.664Z,86.74
2019-05-07T04:05:39.653Z,86.43
2019-05-07T04:06:43.140Z,85.81
2019-05-07T04:07:39.628Z,85.71
2019-05-07T04:08:42.829Z,85.81
2019-05-07T04:09:39.610Z,85.91
2019-05-07T04:10:39.606Z,85.71
2019-05-07T04:11:39.592Z,85.50
2019-05-07T04:12:39.581Z,85.60
2019-05-07T04:13:39.606Z,85.71
2019-05-07T04:14:39.548Z,85.81
2019-05-07T04:15:39.551Z,85.71
2019-05-07T04:16:39.566Z,85.50
2019-05-07T04:17:39.517Z,85.39
2019-05-07T04:18:39.528Z,85.19
2019-05-07T04:19:39.496Z,85.09
2019-05-07T04:20:43.160Z,84.57
2019-05-07T04:21:39.466Z,84.43
2019-05-07T04:22:42.849Z,84.22
2019-05-07T04:23:39.470Z,84.12
2019-05-07T04:24:42.593Z,84.01
2019-05-07T04:25:39.438Z,84.01
2019-05-07T04:26:39.422Z,83.71
2019-05-07T04:27:43.380Z,83.19
2019-05-07T04:28:43.391Z,83.19
2019-05-07T04:29:39.382Z,83.50
2019-05-07T04:30:39.384Z,83.71
2019-05-07T04:31:39.388Z,83.91
2019-05-07T04:32:39.361Z,84.01
2019-05-07T04:33:39.348Z,84.01
2019-05-07T04:34:39.368Z,83.91
2019-05-07T04:35:39.318Z,83.61
2019-05-07T04:36:39.309Z,83.56
2019-05-07T04:37:39.317Z,83.47
2019-05-07T04:38:39.287Z,83.15
2019-05-07T04:39:39.286Z,82.74
2019-05-07T04:40:39.266Z,82.43
2019-05-07T04:41:39.267Z,82.54
2019-05-07T04:42:42.617Z,82.64
2019-05-07T04:43:39.246Z,82.33
2019-05-07T04:44:39.245Z,82.23
2019-05-07T04:45:39.215Z,81.92
2019-05-07T04:46:43.720Z,81.71
2019-05-07T04:47:44.205Z,81.61
2019-05-07T04:48:43.544Z,81.81
2019-05-07T04:49:39.183Z,81.92
2019-05-07T04:50:43.614Z,81.98
2019-05-07T04:51:43.116Z,81.61
2019-05-07T04:52:39.140Z,81.30
2019-05-07T04:53:39.143Z,80.79
2019-05-07T04:54:39.132Z,80.79
2019-05-07T04:55:39.110Z,80.89
2019-05-07T04:56:39.099Z,80.99
2019-05-07T04:57:39.100Z,81.09
2019-05-07T04:58:39.079Z,81.05
2019-05-07T04:59:39.087Z,80.95
2019-05-07T05:00:39.055Z,80.75
2019-05-07T05:01:39.038Z,80.54
2019-05-07T05:02:39.060Z,80.44
2019-05-07T05:03:39.502Z,80.02
2019-05-07T05:04:39.017Z,79.93
2019-05-07T05:05:39.015Z,79.82
2019-05-07T05:06:38.998Z,79.37
2019-05-07T05:07:38.974Z,78.99
2019-05-07T05:08:38.975Z,75.87
2019-05-07T05:09:38.954Z,73.02
2019-05-07T05:10:38.945Z,71.52
2019-05-07T05:11:38.949Z,69.71
2019-05-07T05:12:38.931Z,68.01
2019-05-07T05:13:38.912Z,67.74
2019-05-07T05:14:38.903Z,66.99
2019-05-07T05:15:38.891Z,65.70
2019-05-07T05:16:38.891Z,65.50
2019-05-07T05:17:49.608Z,65.19
2019-05-07T05:18:41.927Z,65.50
2019-05-07T05:19:38.849Z,65.73
2019-05-07T05:20:38.840Z,66.17
2019-05-07T05:21:38.829Z,66.72
2019-05-07T05:22:38.829Z,67.64
2019-05-07T05:23:38.818Z,67.94
2019-05-07T05:24:38.801Z,67.43
2019-05-07T05:25:38.787Z,68.08
2019-05-07T05:26:38.776Z,69.03
2019-05-07T05:27:38.785Z,69.95
2019-05-07T05:28:38.755Z,70.29
2019-05-07T05:29:38.983Z,70.70
2019-05-07T05:30:38.735Z,71.15
2019-05-07T05:31:38.715Z,71.69
2019-05-07T05:32:38.715Z,71.90
2019-05-07T05:33:38.712Z,72.10
2019-05-07T05:34:38.693Z,72.41
2019-05-07T05:35:38.673Z,72.61
2019-05-07T05:36:38.665Z,72.48
2019-05-07T05:37:38.659Z,71.97
2019-05-07T05:38:38.705Z,70.77
2019-05-07T05:39:38.640Z,69.48
2019-05-07T05:40:38.622Z,67.54
2019-05-07T05:41:38.640Z,64.18
2019-05-07T05:42:39.241Z,62.18
2019-05-07T05:43:38.593Z,60.30
2019-05-07T05:44:38.581Z,60.30
2019-05-07T05:45:38.580Z,59.78
2019-05-07T05:46:38.587Z,59.71
2019-05-07T05:47:38.548Z,59.81
2019-05-07T05:48:38.538Z,60.48
2019-05-07T05:49:38.538Z,60.82
2019-05-07T05:50:38.517Z,61.53
2019-05-07T05:51:38.528Z,62.14
2019-05-07T05:52:38.513Z,62.78
2019-05-07T05:53:38.486Z,62.68
2019-05-07T05:54:38.476Z,63.22
2019-05-07T05:55:38.463Z,63.63
2019-05-07T05:56:38.459Z,62.85
2019-05-07T05:57:38.448Z,61.40
2019-05-07T05:58:38.443Z,61.80
2019-05-07T05:59:49.201Z,60.09
2019-05-07T06:00:39.404Z,57.97
2019-05-07T06:01:38.397Z,54.69
2019-05-07T06:02:38.393Z,52.00
2019-05-07T06:03:38.393Z,52.13
2019-05-07T06:04:38.377Z,51.77
2019-05-07T06:05:38.353Z,54.18
2019-05-07T06:06:38.353Z,56.29
2019-05-07T06:07:38.334Z,58.39
2019-05-07T06:08:38.331Z,60.69
2019-05-07T06:09:38.314Z,61.83
2019-05-07T06:10:38.300Z,62.92
2019-05-07T06:11:38.302Z,63.63
2019-05-07T06:12:38.309Z,63.35
2019-05-07T06:13:38.271Z,64.20
2019-05-07T06:14:39.600Z,65.94
2019-05-07T06:15:38.251Z,65.77
2019-05-07T06:16:38.294Z,66.38
2019-05-07T06:17:38.240Z,66.78
2019-05-07T06:18:38.240Z,67.60
2019-05-07T06:19:38.208Z,68.66
2019-05-07T06:20:38.207Z,69.38
2019-05-07T06:21:38.232Z,69.48
2019-05-07T06:22:38.176Z,69.71
2019-05-07T06:23:38.171Z,70.12
2019-05-07T06:24:38.155Z,71.15
2019-05-07T06:25:38.136Z,71.04
2019-05-07T06:26:38.143Z,70.26
2019-05-07T06:27:38.124Z,69.75
2019-05-07T06:28:38.114Z,69.54
2019-05-07T06:29:38.105Z,69.57
2019-05-07T06:30:38.093Z,70.19
2019-05-07T06:31:38.092Z,70.40
2019-05-07T06:32:38.062Z,72.07
2019-05-07T06:33:38.054Z,72.68
2019-05-07T06:34:38.042Z,72.68
2019-05-07T06:35:38.062Z,72.78
2019-05-07T06:36:38.033Z,72.17
2019-05-07T06:37:38.021Z,72.10
2019-05-07T06:38:38.022Z,71.69
2019-05-07T06:39:37.990Z,72.31
2019-05-07T06:40:37.992Z,72.51
2019-05-07T06:41:37.981Z,72.51
2019-05-07T06:42:37.962Z,72.68
2019-05-07T06:43:37.958Z,72.78
2019-05-07T06:44:37.939Z,73.10
2019-05-07T06:45:37.926Z,72.27
2019-05-07T06:46:38.853Z,72.27
2019-05-07T06:47:37.907Z,72.07
2019-05-07T06:48:42.819Z,71.86
2019-05-07T06:49:38.878Z,72.03
2019-05-07T06:50:37.894Z,72.34
2019-05-07T06:51:37.863Z,72.44
2019-05-07T06:52:37.855Z,72.55
2019-05-07T06:53:37.836Z,73.44
2019-05-07T06:54:37.837Z,73.44
2019-05-07T06:55:37.843Z,71.90
2019-05-07T06:56:37.811Z,71.39
2019-05-07T06:57:37.814Z,71.28
2019-05-07T06:58:37.807Z,70.57
2019-05-07T06:59:37.795Z,70.26
2019-05-07T07:00:37.761Z,69.71
2019-05-07T07:01:37.762Z,68.59
2019-05-07T07:02:37.751Z,68.08
2019-05-07T07:03:37.734Z,68.08
2019-05-07T07:04:37.731Z,68.59
2019-05-07T07:05:37.729Z,68.83
2019-05-07T07:06:37.709Z,68.69
2019-05-07T07:07:37.775Z,69.10
2019-05-07T07:08:37.679Z,69.10
2019-05-07T07:09:37.678Z,69.92
2019-05-07T07:10:37.666Z,69.27
2019-05-07T07:11:37.711Z,68.76
2019-05-07T07:12:37.660Z,69.41
2019-05-07T07:13:37.627Z,69.00
2019-05-07T07:14:37.637Z,69.07
2019-05-07T07:15:37.612Z,68.55
2019-05-07T07:16:37.621Z,68.05
2019-05-07T07:17:37.593Z,68.46
2019-05-07T07:18:48.422Z,67.54
2019-05-07T07:19:38.597Z,67.13
2019-05-07T07:20:37.588Z,66.82
2019-05-07T07:21:37.543Z,67.54
2019-05-07T07:22:37.533Z,67.43
2019-05-07T07:23:37.522Z,67.23
2019-05-07T07:24:37.516Z,66.82
2019-05-07T07:25:37.526Z,66.41
2019-05-07T07:26:37.491Z,67.23
2019-05-07T07:27:37.484Z,67.43
2019-05-07T07:28:37.471Z,67.33
2019-05-07T07:29:37.461Z,66.82
2019-05-07T07:30:37.482Z,66.58
2019-05-07T07:31:37.444Z,66.07
2019-05-07T07:32:37.433Z,65.97
2019-05-07T07:33:37.447Z,65.69
2019-05-07T07:34:37.412Z,66.51
2019-05-07T07:35:37.411Z,65.49
2019-05-07T07:36:38.217Z,65.93
2019-05-07T07:37:37.378Z,66.10
2019-05-07T07:38:37.376Z,65.59
2019-05-07T07:39:37.346Z,65.18
2019-05-07T07:40:37.346Z,65.69
2019-05-07T07:41:37.356Z,66.10
2019-05-07T07:42:37.325Z,65.97
2019-05-07T07:43:37.315Z,66.07
2019-05-07T07:44:37.316Z,65.33
2019-05-07T07:45:37.314Z,65.22
2019-05-07T07:46:37.304Z,64.71
2019-05-07T07:47:37.274Z,64.71
2019-05-07T07:48:37.295Z,63.89
2019-05-07T07:49:37.254Z,64.17
2019-05-07T07:50:37.454Z,63.66
2019-05-07T07:51:41.774Z,62.74
2019-05-07T07:52:38.965Z,63.73
2019-05-07T07:53:37.213Z,63.22
2019-05-07T07:54:37.203Z,62.40
2019-05-07T07:55:37.192Z,62.81
2019-05-07T07:56:49.142Z,62.51
2019-05-07T07:57:38.164Z,63.63
2019-05-07T07:58:37.169Z,62.61
2019-05-07T07:59:37.151Z,62.81
2019-05-07T08:00:37.150Z,62.20
2019-05-07T08:01:37.139Z,62.10
2019-05-07T08:02:37.125Z,62.51
2019-05-07T08:03:37.107Z,62.20
2019-05-07T08:04:37.111Z,62.17
2019-05-07T08:05:37.076Z,61.35
2019-05-07T08:06:37.085Z,60.23
2019-05-07T08:07:37.065Z,60.53
2019-05-07T08:08:37.051Z,60.85
2019-05-07T08:09:37.035Z,60.53
2019-05-07T08:10:37.037Z,60.74
2019-05-07T08:11:37.015Z,61.12
2019-05-07T08:12:37.006Z,60.00
2019-05-07T08:13:37.002Z,59.80
2019-05-07T08:14:36.985Z,59.36
2019-05-07T08:15:36.972Z,59.12
2019-05-07T08:16:36.965Z,58.82
2019-05-07T08:17:36.971Z,58.49
2019-05-07T08:18:36.957Z,58.13
2019-05-07T08:19:36.951Z,56.27
2019-05-07T08:20:36.920Z,56.29
2019-05-07T08:21:36.910Z,56.90
2019-05-07T08:22:36.924Z,56.47
2019-05-07T08:23:36.890Z,54.82
2019-05-07T08:24:36.869Z,56.57
2019-05-07T08:25:36.868Z,54.64
2019-05-07T08:26:36.849Z,55.53
2019-05-07T08:27:36.868Z,54.90
2019-05-07T08:28:36.829Z,54.66
2019-05-07T08:29:36.825Z,54.16
2019-05-07T08:30:36.815Z,53.37
2019-05-07T08:31:36.801Z,52.79
2019-05-07T08:32:36.788Z,53.32
2019-05-07T08:33:36.786Z,54.77
2019-05-07T08:34:36.787Z,53.75
2019-05-07T08:35:36.756Z,54.00
2019-05-07T08:36:36.756Z,55.76
2019-05-07T08:37:36.735Z,55.46
2019-05-07T08:38:37.343Z,55.99
2019-05-07T08:39:36.725Z,56.50
2019-05-07T08:40:36.728Z,56.60
2019-05-07T08:41:36.692Z,57.31
2019-05-07T08:42:36.684Z,56.68
2019-05-07T08:43:36.673Z,52.54
2019-05-07T08:44:36.680Z,45.56
2019-05-07T08:45:36.835Z,41.95
2019-05-07T08:46:36.657Z,39.80
2019-05-07T08:47:36.621Z,40.22
2019-05-07T08:48:36.631Z,42.03
2019-05-07T08:49:39.846Z,42.72
2019-05-07T08:50:36.599Z,42.18
2019-05-07T08:51:36.590Z,41.79
2019-05-07T08:52:36.569Z,42.84
2019-05-07T08:53:36.579Z,43.16
2019-05-07T08:54:36.549Z,43.77
2019-05-07T08:55:36.549Z,44.31
2019-05-07T08:56:36.528Z,42.52
2019-05-07T08:57:36.519Z,40.33
2019-05-07T08:58:36.518Z,39.06
2019-05-07T08:59:36.507Z,38.02
2019-05-07T09:00:36.567Z,36.98
2019-05-07T09:01:36.476Z,36.36
2019-05-07T09:02:36.466Z,35.26
2019-05-07T09:03:36.467Z,34.78
2019-05-07T09:04:36.466Z,35.51
2019-05-07T09:05:36.438Z,37.39
2019-05-07T09:06:36.416Z,38.09
2019-05-07T09:07:36.414Z,38.60
2019-05-07T09:08:36.399Z,37.85
2019-05-07T09:09:36.408Z,37.42
2019-05-07T09:10:36.387Z,37.59
2019-05-07T09:11:36.366Z,35.51
2019-05-07T09:12:36.354Z,37.15
2019-05-07T09:13:36.347Z,39.52
2019-05-07T09:14:36.353Z,40.91
2019-05-07T09:15:36.334Z,42.76
2019-05-07T09:16:36.323Z,43.71
2019-05-07T09:17:36.303Z,45.54
2019-05-07T09:18:36.303Z,45.89
2019-05-07T09:19:47.280Z,46.32
2019-05-07T09:20:37.302Z,47.35
2019-05-07T09:21:36.285Z,48.08
2019-05-07T09:22:36.261Z,48.91
2019-05-07T09:23:36.241Z,49.37
2019-05-07T09:24:36.231Z,50.12
2019-05-07T09:25:36.255Z,51.49
2019-05-07T09:26:36.214Z,52.03
2019-05-07T09:27:36.211Z,52.43
2019-05-07T09:28:36.190Z,51.62
2019-05-07T09:29:36.238Z,51.42
2019-05-07T09:30:36.186Z,51.39
2019-05-07T09:31:36.162Z,50.96
2019-05-07T09:32:36.149Z,51.39
2019-05-07T09:33:36.140Z,51.49
2019-05-07T09:34:36.128Z,52.33
2019-05-07T09:35:36.138Z,52.23
2019-05-07T09:36:36.130Z,51.95
2019-05-07T09:37:36.118Z,52.25
2019-05-07T09:38:36.096Z,51.84
2019-05-07T09:39:36.087Z,51.97
2019-05-07T09:40:36.066Z,52.48
2019-05-07T09:41:36.105Z,52.17
2019-05-07T09:42:36.056Z,53.29
2019-05-07T09:43:36.045Z,52.81
2019-05-07T09:44:36.023Z,52.50
2019-05-07T09:45:36.026Z,52.20
2019-05-07T09:46:36.019Z,52.20
2019-05-07T09:47:35.983Z,51.10
2019-05-07T09:48:36.060Z,51.18
2019-05-07T09:49:35.963Z,50.24
2019-05-07T09:50:35.955Z,50.24
2019-05-07T09:51:35.952Z,49.73
2019-05-07T09:52:35.932Z,50.55
2019-05-07T09:53:35.952Z,50.32
2019-05-07T09:54:35.911Z,50.32
2019-05-07T09:55:35.900Z,49.91
2019-05-07T09:56:35.912Z,50.93
2019-05-07T09:57:35.881Z,50.75
2019-05-07T09:58:39.045Z,50.93
2019-05-07T09:59:35.877Z,49.73
2019-05-07T10:00:35.840Z,50.24
2019-05-07T10:01:35.849Z,49.43
2019-05-07T10:02:35.839Z,50.98
2019-05-07T10:03:35.873Z,51.56
2019-05-07T10:04:35.817Z,50.60
2019-05-07T10:05:35.817Z,49.46
2019-05-07T10:06:35.777Z,49.95
2019-05-07T10:07:35.778Z,49.52
2019-05-07T10:08:35.766Z,49.44
2019-05-07T10:09:35.879Z,49.23
2019-05-07T10:10:35.769Z,49.74
2019-05-07T10:11:35.727Z,50.02
2019-05-07T10:12:36.431Z,49.21
2019-05-07T10:13:35.706Z,49.46
2019-05-07T10:14:35.774Z,49.46
2019-05-07T10:15:35.712Z,50.37
2019-05-07T10:16:35.693Z,50.48
2019-05-07T10:17:35.664Z,50.15
2019-05-07T10:18:35.663Z,50.02
2019-05-07T10:19:35.664Z,48.60
2019-05-07T10:20:35.640Z,48.50
2019-05-07T10:21:35.621Z,47.81
2019-05-07T10:22:35.641Z,48.52
2019-05-07T10:23:35.602Z,48.22
2019-05-07T10:24:35.592Z,48.52
2019-05-07T10:25:35.601Z,48.71
2019-05-07T10:26:35.569Z,48.30
2019-05-07T10:27:35.589Z,49.11
2019-05-07T10:28:35.539Z,48.99
2019-05-07T10:29:35.537Z,47.85
2019-05-07T10:30:35.533Z,47.85
2019-05-07T10:31:35.518Z,47.44
2019-05-07T10:32:35.498Z,45.42
2019-05-07T10:33:35.507Z,44.22
2019-05-07T10:34:35.479Z,44.54
2019-05-07T10:35:35.478Z,45.98
2019-05-07T10:36:35.470Z,46.70
2019-05-07T10:37:35.446Z,47.43
2019-05-07T10:38:35.435Z,47.43
2019-05-07T10:39:35.418Z,47.45
2019-05-07T10:40:35.425Z,48.08
2019-05-07T10:41:35.404Z,48.28
2019-05-07T10:42:35.394Z,48.69
2019-05-07T10:43:35.385Z,49.10
2019-05-07T10:44:35.376Z,49.00
2019-05-07T10:45:35.381Z,49.43
2019-05-07T10:46:35.344Z,50.75
2019-05-07T10:47:35.332Z,51.39
2019-05-07T10:48:35.354Z,51.36
2019-05-07T10:49:35.323Z,50.73
2019-05-07T10:50:39.176Z,50.42
2019-05-07T10:51:35.291Z,49.08
2019-05-07T10:52:35.281Z,48.67
2019-05-07T10:53:35.271Z,47.86
2019-05-07T10:54:35.261Z,46.97
2019-05-07T10:55:35.268Z,47.67
2019-05-07T10:56:35.239Z,47.88
2019-05-07T10:57:35.249Z,47.86
2019-05-07T10:58:35.219Z,47.25
2019-05-07T10:59:35.222Z,47.96
2019-05-07T11:00:35.209Z,47.14
2019-05-07T11:01:35.194Z,47.05
2019-05-07T11:02:35.177Z,47.47
2019-05-07T11:03:35.197Z,48.39
2019-05-07T11:04:42.633Z,48.49
2019-05-07T11:05:36.146Z,48.77
2019-05-07T11:06:35.196Z,47.96
2019-05-07T11:07:35.136Z,47.63
2019-05-07T11:08:35.106Z,47.55
2019-05-07T11:09:35.096Z,47.45
2019-05-07T11:10:35.088Z,47.86
2019-05-07T11:11:35.074Z,47.45
2019-05-07T11:12:35.157Z,47.58
2019-05-07T11:13:35.054Z,48.00
2019-05-07T11:14:35.043Z,48.92
2019-05-07T11:15:35.032Z,49.63
2019-05-07T11:16:35.044Z,49.33
2019-05-07T11:17:35.015Z,49.65
2019-05-07T11:18:35.008Z,50.16
2019-05-07T11:19:34.991Z,50.78
2019-05-07T11:20:46.553Z,50.26
2019-05-07T11:21:36.038Z,50.37
2019-05-07T11:22:34.962Z,50.78
2019-05-07T11:23:34.947Z,50.67
2019-05-07T11:24:34.940Z,51.43
2019-05-07T11:25:34.930Z,53.22
2019-05-07T11:26:34.921Z,54.90
2019-05-07T11:27:34.910Z,56.68
2019-05-07T11:28:34.976Z,58.14
2019-05-07T11:29:36.632Z,60.11
2019-05-07T11:30:34.897Z,61.36
2019-05-07T11:31:34.866Z,62.70
2019-05-07T11:32:34.857Z,65.08
2019-05-07T11:33:34.865Z,67.02
2019-05-07T11:34:34.827Z,70.64
2019-05-07T11:35:34.834Z,72.00
2019-05-07T11:36:34.815Z,72.65
2019-05-07T11:37:34.814Z,76.89
2019-05-07T11:38:34.805Z,76.48
2019-05-07T11:39:34.787Z,77.13
2019-05-07T11:40:35.065Z,76.65
2019-05-07T11:41:34.766Z,77.68
2019-05-07T11:42:34.755Z,80.14
2019-05-07T11:43:34.733Z,80.65
2019-05-07T11:44:34.731Z,81.37
2019-05-07T11:45:34.733Z,80.04
2019-05-07T11:46:34.725Z,79.36
2019-05-07T11:47:34.696Z,80.55
2019-05-07T11:48:36.398Z,78.09
2019-05-07T11:49:34.681Z,78.70
2019-05-07T11:50:34.669Z,74.63
2019-05-07T11:51:34.649Z,75.04
2019-05-07T11:52:35.824Z,75.76
2019-05-07T11:53:34.631Z,80.65
2019-05-07T11:54:34.629Z,82.05
2019-05-07T11:55:34.624Z,81.34
2019-05-07T11:56:34.607Z,80.47
2019-05-07T11:57:34.579Z,82.28
2019-05-07T11:58:34.586Z,81.57
2019-05-07T11:59:34.586Z,82.04
2019-05-07T12:00:34.558Z,80.71
2019-05-07T12:01:43.974Z,79.58
2019-05-07T12:02:35.525Z,79.44
2019-05-07T12:03:34.537Z,80.05
2019-05-07T12:04:34.514Z,79.64
2019-05-07T12:05:34.495Z,77.15
2019-05-07T12:06:34.509Z,78.08
2019-05-07T12:07:34.516Z,79.61
2019-05-07T12:08:43.053Z,78.86
2019-05-07T12:09:35.462Z,79.06
2019-05-07T12:10:34.491Z,80.19
2019-05-07T12:11:34.430Z,78.65
2019-05-07T12:12:34.422Z,76.37
2019-05-07T12:13:34.412Z,74.02
2019-05-07T12:14:35.059Z,75.65
2019-05-07T12:15:34.402Z,75.65
2019-05-07T12:16:34.384Z,76.03
2019-05-07T12:17:34.370Z,71.94
2019-05-07T12:18:34.367Z,72.55
2019-05-07T12:19:34.346Z,75.21
2019-05-07T12:20:35.020Z,73.47
2019-05-07T12:21:34.337Z,74.80
2019-05-07T12:22:34.323Z,72.24
2019-05-07T12:23:34.336Z,73.27
2019-05-07T12:24:34.298Z,71.83
2019-05-07T12:25:34.308Z,71.12
2019-05-07T12:26:34.275Z,73.57
2019-05-07T12:27:34.266Z,69.59
2019-05-07T12:28:34.256Z,71.01
2019-05-07T12:29:34.255Z,68.97
2019-05-07T12:30:34.253Z,70.71
2019-05-07T12:31:34.233Z,71.59
2019-05-07T12:32:34.212Z,73.23
2019-05-07T12:33:34.210Z,70.78
2019-05-07T12:34:34.203Z,70.57
2019-05-07T12:35:34.191Z,68.19
2019-05-07T12:36:34.174Z,70.54
2019-05-07T12:37:34.170Z,70.54
2019-05-07T12:38:34.150Z,70.64
2019-05-07T12:39:34.139Z,72.34
2019-05-07T12:40:35.578Z,70.81
2019-05-07T12:41:34.483Z,70.64
2019-05-07T12:42:34.118Z,69.69
2019-05-07T12:43:34.097Z,69.08
2019-05-07T12:44:34.088Z,68.26
2019-05-07T12:45:34.079Z,66.22
2019-05-07T12:46:34.101Z,67.45
2019-05-07T12:47:34.047Z,67.55
2019-05-07T12:48:34.036Z,67.96
2019-05-07T12:49:34.026Z,68.47
2019-05-07T12:50:34.025Z,69.08
2019-05-07T12:51:37.388Z,70.57
2019-05-07T12:52:33.994Z,70.89